Time;durP1;ratioP1;P1;durP2;ratioP2;P2;SDS_P1;SDS_P2;PMS_P1;PMS_P2;Temp;Humidity;BMP_temperature;BMP_pressure;BME280_temperature;BME280_humidity;BME280_pressure;Samples;Min_cycle;Max_cycle;Signal;HPM_P1;HPM_P2
2023/06/22 00:00:35;;;;;;;9.70;5.57;;;;;;;24.64;60.68;100563.75;4158869;28;20043;-64
2023/06/22 00:02:38;;;;;;;7.20;4.97;;;;;;;24.62;60.21;100569.13;4176649;28;20068;-64
2023/06/22 00:04:43;;;;;;;7.82;5.05;;;;;;;24.60;59.72;100575.44;4156736;28;20107;-64
2023/06/22 00:06:46;;;;;;;9.32;5.05;;;;;;;24.56;59.46;100570.22;4175619;28;20661;-65
2023/06/22 00:08:49;;;;;;;7.72;5.38;;;;;;;24.53;59.37;100578.31;4176305;28;20037;-64
2023/06/22 00:10:52;;;;;;;12.02;5.80;;;;;;;24.52;59.29;100584.56;4176468;28;20048;-64
2023/06/22 00:12:54;;;;;;;6.80;5.30;;;;;;;24.49;59.39;100590.00;4176260;28;20125;-64
2023/06/22 00:14:57;;;;;;;7.55;4.60;;;;;;;24.46;59.58;100590.13;4176208;28;20045;-64
2023/06/22 00:17:00;;;;;;;7.03;5.38;;;;;;;24.47;59.74;100606.94;4176415;28;20048;-64
2023/06/22 00:19:03;;;;;;;7.10;5.63;;;;;;;24.49;59.73;100613.06;4176540;28;20049;-64
2023/06/22 00:21:08;;;;;;;8.15;5.05;;;;;;;24.45;60.06;100622.94;4176256;28;20040;-64
2023/06/22 00:23:11;;;;;;;7.95;5.93;;;;;;;24.46;60.03;100626.47;4175997;28;20094;-64
2023/06/22 00:25:13;;;;;;;7.20;5.20;;;;;;;24.45;59.81;100641.56;4175890;28;20608;-64
2023/06/22 00:27:16;;;;;;;6.60;4.90;;;;;;;24.42;59.32;100646.16;4174683;28;20494;-64
2023/06/22 00:29:19;;;;;;;6.65;4.70;;;;;;;24.46;59.35;100645.94;4157978;28;20042;-64
2023/06/22 00:31:22;;;;;;;7.78;5.05;;;;;;;24.47;59.17;100637.03;4177936;28;20530;-64
2023/06/22 00:33:25;;;;;;;8.75;5.53;;;;;;;24.50;59.13;100644.91;4179312;28;20467;-64
2023/06/22 00:35:29;;;;;;;7.55;5.90;;;;;;;24.55;59.05;100660.66;4162253;28;20041;-65
2023/06/22 00:37:33;;;;;;;7.30;5.07;;;;;;;24.61;59.14;100697.66;4179134;28;20208;-64
2023/06/22 00:39:36;;;;;;;8.35;5.60;;;;;;;24.61;59.29;100747.31;4161317;28;20124;-64
2023/06/22 00:41:39;;;;;;;12.80;7.10;;;;;;;24.60;59.56;100820.84;4160220;28;20045;-64
2023/06/22 00:43:42;;;;;;;10.20;6.78;;;;;;;24.58;59.90;100874.03;4159091;28;20045;-64
2023/06/22 00:45:45;;;;;;;8.75;7.15;;;;;;;24.54;59.96;100898.13;4162059;28;20048;-65
2023/06/22 00:47:47;;;;;;;9.95;6.78;;;;;;;24.45;60.28;100901.16;4161798;28;20048;-65
2023/06/22 00:49:51;;;;;;;9.10;6.57;;;;;;;24.33;60.23;100882.06;4162065;28;20045;-64
2023/06/22 00:51:54;;;;;;;15.02;7.30;;;;;;;24.45;59.94;100797.50;4162274;28;20057;-65
2023/06/22 00:53:59;;;;;;;13.40;7.93;;;;;;;24.78;60.19;100678.34;4161877;28;20450;-66
2023/06/22 00:56:03;;;;;;;12.52;8.45;;;;;;;24.81;60.54;100611.75;4174142;28;20040;-66
2023/06/22 00:58:10;;;;;;;14.73;8.07;;;;;;;24.38;62.79;100598.41;4161949;28;20072;-66
2023/06/22 01:00:17;;;;;;;10.43;7.80;;;;;;;24.20;63.59;100585.91;4162483;28;20454;-65
2023/06/22 01:02:19;;;;;;;13.70;9.23;;;;;;;24.08;64.52;100546.53;4177310;28;20434;-65
2023/06/22 01:04:25;;;;;;;14.05;8.32;;;;;;;23.76;65.54;100514.13;4177756;28;20510;-64
2023/06/22 01:06:37;;;;;;;12.95;9.57;;;;;;;23.59;66.35;100521.00;4158980;28;20491;-65
2023/06/22 01:08:58;;;;;;;12.70;9.00;;;;;;;23.53;66.18;100548.63;4158294;28;20037;-64
2023/06/22 01:11:08;;;;;;;12.48;7.97;;;;;;;23.46;66.45;100589.59;4159772;28;20101;-65
2023/06/22 01:13:19;;;;;;;11.18;7.60;;;;;;;23.50;67.32;100624.84;4159900;28;20041;-65
2023/06/22 01:15:29;;;;;;;11.00;7.60;;;;;;;23.57;68.45;100639.63;4178154;28;20071;-65
2023/06/22 01:17:33;;;;;;;10.15;8.13;;;;;;;23.62;69.32;100624.38;4159298;28;20038;-65
2023/06/22 01:19:44;;;;;;;9.48;7.57;;;;;;;23.61;69.38;100598.78;4177475;28;20032;-65
2023/06/22 01:21:47;;;;;;;14.32;9.13;;;;;;;23.56;69.34;100605.19;4160956;28;20045;-65
2023/06/22 01:24:02;;;;;;;15.20;10.40;;;;;;;23.57;68.72;100594.50;4144690;28;20040;-65
2023/06/22 01:26:19;;;;;;;10.55;7.28;;;;;;;23.53;68.42;100611.47;4163329;28;20102;-65
2023/06/22 01:28:43;;;;;;;13.70;8.40;;;;;;;23.54;68.88;100610.53;4173365;28;20041;-65
2023/06/22 01:30:50;;;;;;;11.88;8.27;;;;;;;23.57;69.34;100609.53;4160478;28;20046;-65
2023/06/22 01:32:55;;;;;;;11.60;9.57;;;;;;;23.57;69.94;100615.72;4177877;28;20063;-65
2023/06/22 01:35:02;;;;;;;14.10;8.02;;;;;;;23.56;70.39;100613.13;4158671;28;20037;-65
2023/06/22 01:37:07;;;;;;;15.23;9.60;;;;;;;23.60;70.04;100617.41;4178012;28;20540;-65
2023/06/22 01:39:10;;;;;;;12.43;9.48;;;;;;;23.62;70.71;100624.38;4178586;28;20029;-65
2023/06/22 01:41:14;;;;;;;11.57;8.88;;;;;;;23.62;71.10;100632.34;4159667;28;20459;-65
2023/06/22 01:43:17;;;;;;;12.88;9.30;;;;;;;23.58;71.35;100628.06;4175310;28;20040;-65
2023/06/22 01:45:22;;;;;;;10.13;8.70;;;;;;;23.56;71.51;100627.25;4164970;28;20040;-65
2023/06/22 01:47:25;;;;;;;11.18;8.70;;;;;;;23.52;71.41;100617.69;4176170;28;20128;-65
2023/06/22 01:49:29;;;;;;;11.05;7.55;;;;;;;23.48;71.39;100608.09;4142520;28;20042;-64
2023/06/22 01:51:33;;;;;;;11.35;9.23;;;;;;;23.45;71.42;100606.44;4178839;28;20037;-64
2023/06/22 01:53:36;;;;;;;12.68;8.43;;;;;;;23.43;71.44;100612.72;4144151;28;20094;-65
2023/06/22 01:55:38;;;;;;;16.83;9.45;;;;;;;23.42;71.82;100609.22;4175643;28;20044;-65
2023/06/22 01:57:41;;;;;;;13.90;10.38;;;;;;;23.43;71.73;100610.06;4159965;28;20140;-65
2023/06/22 01:59:53;;;;;;;14.05;9.85;;;;;;;23.45;71.42;100608.22;4160726;28;20526;-64
2023/06/22 02:02:02;;;;;;;12.65;9.43;;;;;;;23.42;70.68;100617.19;4141454;28;20084;-65
2023/06/22 02:04:12;;;;;;;11.13;8.48;;;;;;;23.40;70.63;100623.44;4178703;28;20490;-64
2023/06/22 02:06:20;;;;;;;12.43;9.52;;;;;;;23.39;71.20;100629.66;4159440;28;20041;-64
2023/06/22 02:08:25;;;;;;;9.60;8.38;;;;;;;23.37;71.15;100627.06;4144764;28;20042;-64
2023/06/22 02:10:29;;;;;;;10.70;9.23;;;;;;;23.39;71.17;100619.91;4160639;28;20064;-65
2023/06/22 02:12:35;;;;;;;11.98;9.63;;;;;;;23.41;71.25;100619.84;4161115;28;20191;-64
2023/06/22 02:14:39;;;;;;;11.30;8.77;;;;;;;23.36;71.49;100612.06;4161987;28;20037;-65
2023/06/22 02:16:44;;;;;;;11.90;9.38;;;;;;;23.35;71.67;100615.66;4160471;28;20033;-64
2023/06/22 02:18:50;;;;;;;11.68;10.38;;;;;;;23.38;71.31;100614.66;4160493;28;20041;-64
2023/06/22 02:20:53;;;;;;;13.63;11.35;;;;;;;23.42;70.34;100610.97;4160081;28;20131;-64
2023/06/22 02:22:58;;;;;;;14.00;10.57;;;;;;;23.41;69.88;100603.94;4143341;28;20053;-65
2023/06/22 02:25:01;;;;;;;11.90;9.77;;;;;;;23.39;70.34;100601.34;4158449;28;20055;-65
2023/06/22 02:27:06;;;;;;;12.32;10.30;;;;;;;23.39;70.97;100604.00;4145513;28;20038;-65
2023/06/22 02:29:09;;;;;;;13.00;11.35;;;;;;;23.37;71.14;100608.50;4159903;28;20367;-65
2023/06/22 02:31:12;;;;;;;11.57;10.38;;;;;;;23.39;70.32;100617.25;4177230;28;20490;-64
2023/06/22 02:33:15;;;;;;;15.05;12.20;;;;;;;23.41;69.69;100607.47;4178728;28;20402;-64
2023/06/22 02:35:19;;;;;;;14.90;11.52;;;;;;;23.42;69.37;100606.56;4176710;28;20041;-64
2023/06/22 02:37:24;;;;;;;17.08;12.82;;;;;;;23.45;68.96;100602.91;4139711;28;20041;-64
2023/06/22 02:39:27;;;;;;;14.57;11.70;;;;;;;23.41;69.06;100603.94;4159431;28;20058;-64
2023/06/22 02:41:30;;;;;;;11.95;9.77;;;;;;;23.39;68.92;100603.13;4142694;28;20061;-64
2023/06/22 02:43:33;;;;;;;13.95;10.93;;;;;;;23.38;69.17;100596.09;4159886;28;20038;-64
2023/06/22 02:45:36;;;;;;;15.23;12.60;;;;;;;23.40;69.21;100581.00;4176220;28;20045;-64
2023/06/22 02:47:39;;;;;;;18.95;12.25;;;;;;;23.36;69.18;100574.94;4159882;28;20048;-64
2023/06/22 02:49:42;;;;;;;13.32;11.05;;;;;;;23.29;69.35;100578.72;4177423;28;20485;-64
2023/06/22 02:51:48;;;;;;;16.40;11.25;;;;;;;23.24;69.66;100578.91;4159888;28;20037;-64
2023/06/22 02:53:57;;;;;;;12.98;9.90;;;;;;;23.22;69.77;100578.09;4158016;28;20531;-64
2023/06/22 02:56:01;;;;;;;14.10;10.85;;;;;;;23.22;69.98;100577.22;4173905;28;20127;-64
2023/06/22 02:58:06;;;;;;;13.07;11.70;;;;;;;23.26;70.10;100573.53;4159398;28;20041;-64
2023/06/22 03:00:17;;;;;;;13.00;11.25;;;;;;;23.23;70.09;100561.28;4159077;28;20037;-64
2023/06/22 03:02:21;;;;;;;12.70;11.40;;;;;;;23.21;70.26;100572.88;4160573;28;20068;-64
2023/06/22 03:04:24;;;;;;;13.80;12.40;;;;;;;23.18;70.04;100571.19;4176702;28;20060;-64
2023/06/22 03:06:28;;;;;;;14.52;13.02;;;;;;;23.23;69.79;100574.53;4160081;28;20037;-64
2023/06/22 03:08:32;;;;;;;13.70;11.82;;;;;;;23.16;70.23;100573.88;4174007;28;20123;-64
2023/06/22 03:10:35;;;;;;;18.70;12.00;;;;;;;23.13;70.19;100576.66;4160172;28;20041;-64
2023/06/22 03:12:38;;;;;;;13.60;12.02;;;;;;;23.09;70.71;100571.50;4177635;28;20039;-64
2023/06/22 03:14:41;;;;;;;13.48;10.43;;;;;;;23.09;71.00;100572.34;4152708;28;20124;-64
2023/06/22 03:16:44;;;;;;;13.88;11.88;;;;;;;23.02;71.41;100570.84;4161882;28;20061;-64
2023/06/22 03:18:47;;;;;;;12.70;11.32;;;;;;;22.96;71.11;100565.75;4160042;28;20228;-64
2023/06/22 03:20:50;;;;;;;13.75;12.27;;;;;;;22.96;71.25;100561.31;4150013;22;21317;-63
2023/06/22 03:22:53;;;;;;;17.35;13.73;;;;;;;23.00;70.83;100557.63;4117544;28;20582;-63
2023/06/22 03:24:59;;;;;;;12.82;11.18;;;;;;;22.97;70.80;100560.41;4100524;28;20046;-63
2023/06/22 03:27:04;;;;;;;;;;;;;;;22.92;70.66;100566.78;4106464;28;20067;-63
2023/06/22 03:29:09;;;;;;;13.40;11.35;;;;;;;22.91;70.29;100557.09;4112144;28;20347;-63
2023/06/22 03:31:12;;;;;;;13.02;11.32;;;;;;;22.93;70.53;100563.22;4093338;28;20114;-63
2023/06/22 03:33:16;;;;;;;11.02;9.63;;;;;;;22.98;69.94;100559.47;4094966;28;20035;-64
2023/06/22 03:35:19;;;;;;;11.30;10.20;;;;;;;23.06;69.47;100558.34;4109159;28;20035;-64
2023/06/22 03:37:22;;;;;;;12.80;10.60;;;;;;;23.06;69.22;100561.84;4114619;28;20067;-64
2023/06/22 03:39:26;;;;;;;14.45;9.80;;;;;;;23.06;69.23;100558.34;4094979;28;20122;-64
2023/06/22 03:41:30;;;;;;;12.15;10.32;;;;;;;23.06;69.44;100561.84;4113006;28;20074;-64
2023/06/22 03:43:33;;;;;;;13.32;10.13;;;;;;;23.08;69.29;100561.78;4086828;28;20123;-64
2023/06/22 03:45:36;;;;;;;11.98;10.32;;;;;;;23.14;69.54;100567.78;4098786;28;20490;-64
2023/06/22 03:47:39;;;;;;;11.70;9.85;;;;;;;23.18;69.41;100563.22;4098345;28;20514;-64
2023/06/22 03:49:42;;;;;;;10.60;8.40;;;;;;;23.20;68.86;100556.06;4095371;28;20035;-63
2023/06/22 03:51:45;;;;;;;11.73;8.85;;;;;;;23.39;68.23;100555.38;4110205;28;20098;-63
2023/06/22 03:53:48;;;;;;;10.93;8.73;;;;;;;23.61;68.15;100564.28;4090775;28;20051;-63
2023/06/22 03:55:52;;;;;;;8.90;8.00;;;;;;;23.79;67.45;100564.47;4113717;28;20093;-63
2023/06/22 03:57:57;;;;;;;11.35;9.25;;;;;;;23.87;67.53;100565.06;4095841;28;20090;-64
2023/06/22 04:00:00;;;;;;;12.93;8.63;;;;;;;23.93;67.57;100559.50;4095109;28;20039;-64
2023/06/22 04:02:13;;;;;;;10.80;8.15;;;;;;;23.90;67.83;100559.63;4111967;28;20401;-64
2023/06/22 04:04:16;;;;;;;9.80;7.85;;;;;;;23.88;67.78;100565.00;4099384;28;20046;-64
2023/06/22 04:06:19;;;;;;;14.32;9.13;;;;;;;23.88;67.79;100556.19;4111498;28;20097;-64
2023/06/22 04:08:22;;;;;;;11.25;8.07;;;;;;;23.93;67.85;100554.19;4117326;28;20077;-64
2023/06/22 04:10:25;;;;;;;12.55;9.07;;;;;;;23.94;67.92;100547.97;4114748;28;20051;-64
2023/06/22 04:12:28;;;;;;;11.20;7.60;;;;;;;23.96;67.88;100548.78;4115272;28;20043;-65
2023/06/22 04:14:32;;;;;;;13.60;8.20;;;;;;;24.03;67.86;100555.56;4113089;28;20063;-64
2023/06/22 04:16:35;;;;;;;12.82;7.90;;;;;;;24.03;67.71;100560.00;4113785;28;20077;-64
2023/06/22 04:18:38;;;;;;;11.88;8.20;;;;;;;24.02;67.75;100553.84;4114694;28;20050;-64
2023/06/22 04:20:41;;;;;;;9.60;7.55;;;;;;;23.98;67.74;100549.56;4112560;28;20037;-64
2023/06/22 04:22:45;;;;;;;9.90;7.85;;;;;;;23.91;67.84;100553.41;4112253;28;20437;-64
2023/06/22 04:24:48;;;;;;;14.00;9.57;;;;;;;23.96;68.12;100550.56;4117215;28;20042;-65
2023/06/22 04:26:54;;;;;;;11.48;9.20;;;;;;;23.89;68.19;100547.28;4094788;28;20063;-67
2023/06/22 04:29:05;;;;;;;12.52;10.90;;;;;;;23.84;67.15;100547.41;4112978;28;20058;-66
2023/06/22 04:31:09;;;;;;;10.88;9.65;;;;;;;23.64;67.29;100542.91;4097457;28;20070;-66
2023/06/22 04:33:11;;;;;;;;;;;;;;;23.40;68.31;100542.06;4100825;28;20441;-66
2023/06/22 04:35:15;;;;;;;14.05;9.98;;;;;;;23.39;68.73;100550.94;4117840;28;19932;-66
2023/06/22 04:37:18;;;;;;;11.15;9.32;;;;;;;23.41;67.86;100550.88;4097812;28;20051;-66
2023/06/22 04:39:21;;;;;;;11.90;8.98;;;;;;;23.35;68.04;100557.31;4114128;28;20035;-66
2023/06/22 04:41:24;;;;;;;10.52;9.25;;;;;;;23.33;68.17;100552.06;4118833;28;20043;-66
2023/06/22 04:43:30;;;;;;;10.38;8.48;;;;;;;23.28;68.49;100553.16;4115567;28;20475;-66
2023/06/22 04:45:33;;;;;;;11.45;8.43;;;;;;;23.32;68.17;100552.13;4115537;28;20038;-66
2023/06/22 04:47:39;;;;;;;16.85;9.82;;;;;;;23.33;68.45;100560.00;4100594;28;20050;-66
2023/06/22 04:49:43;;;;;;;11.20;9.10;;;;;;;23.42;68.16;100549.97;4114966;28;20049;-65
2023/06/22 04:51:46;;;;;;;10.40;8.48;;;;;;;23.41;68.08;100541.16;4117329;28;20038;-65
2023/06/22 04:53:48;;;;;;;12.55;9.52;;;;;;;23.43;68.19;100544.59;4102409;28;20046;-65
2023/06/22 04:55:53;;;;;;;9.10;7.70;;;;;;;23.49;68.09;100532.88;4110250;28;20505;-66
2023/06/22 04:57:55;;;;;;;9.95;8.82;;;;;;;23.47;68.07;100538.25;4097765;28;20182;-65
2023/06/22 05:00:10;;;;;;;13.02;8.82;;;;;;;23.51;68.09;100531.06;4116650;28;20047;-65
2023/06/22 05:02:13;;;;;;;10.18;7.90;;;;;;;23.58;67.81;100535.16;4118074;28;20038;-65
2023/06/22 05:04:18;;;;;;;11.32;8.45;;;;;;;23.57;68.17;100527.28;4114657;28;20051;-65
2023/06/22 05:06:21;;;;;;;11.95;8.23;;;;;;;23.59;68.36;100536.06;4113366;28;20035;-64
2023/06/22 05:08:26;;;;;;;13.18;8.63;;;;;;;23.64;68.39;100527.00;4119060;28;20126;-64
2023/06/22 05:10:29;;;;;;;11.63;7.95;;;;;;;23.74;68.49;100526.63;4115121;28;20039;-65
2023/06/22 05:12:33;;;;;;;9.75;7.75;;;;;;;23.80;68.82;100532.56;4118111;28;20436;-65
2023/06/22 05:14:36;;;;;;;11.18;8.23;;;;;;;23.83;68.27;100529.78;4119422;28;20085;-64
2023/06/22 05:16:39;;;;;;;10.93;8.45;;;;;;;23.90;68.38;100525.09;4112948;28;20567;-64
2023/06/22 05:18:43;;;;;;;12.18;9.07;;;;;;;23.98;67.97;100516.84;4113086;28;20351;-64
2023/06/22 05:20:47;;;;;;;12.98;10.93;;;;;;;24.04;66.63;100517.44;4116500;28;20038;-64
2023/06/22 05:22:50;;;;;;;9.80;8.32;;;;;;;23.93;67.51;100522.31;4111826;28;20047;-64
2023/06/22 05:24:53;;;;;;;9.45;8.25;;;;;;;23.98;67.40;100525.66;4096647;28;20500;-64
2023/06/22 05:26:58;;;;;;;9.55;7.68;;;;;;;24.02;66.90;100519.31;4100132;28;20063;-64
2023/06/22 05:29:03;;;;;;;12.77;9.23;;;;;;;24.07;67.63;100515.63;4098940;28;20134;-64
2023/06/22 05:31:06;;;;;;;12.02;9.93;;;;;;;24.16;67.80;100512.56;4114632;28;20039;-64
2023/06/22 05:33:09;;;;;;;11.38;9.18;;;;;;;24.22;66.58;100504.31;4113105;28;20435;-64
2023/06/22 05:35:12;;;;;;;9.45;8.32;;;;;;;24.26;64.85;100507.75;4108107;28;20038;-64
2023/06/22 05:37:16;;;;;;;9.70;8.43;;;;;;;24.29;65.28;100505.81;4088487;28;20078;-64
2023/06/22 05:39:19;;;;;;;11.32;9.15;;;;;;;24.38;64.83;100497.44;4098362;28;20136;-64
2023/06/22 05:41:22;;;;;;;9.85;7.07;;;;;;;24.36;64.37;100499.31;4118840;28;20130;-64
2023/06/22 05:43:24;;;;;;;9.98;7.70;;;;;;;24.37;63.70;100501.03;4116068;28;20133;-64
2023/06/22 05:45:27;;;;;;;9.05;7.43;;;;;;;24.44;63.47;100498.09;4115215;28;20621;-64
2023/06/22 05:47:30;;;;;;;9.10;6.88;;;;;;;24.47;63.84;100504.16;4116820;28;20448;-64
2023/06/22 05:49:33;;;;;;;11.10;7.82;;;;;;;24.53;64.22;100503.03;4112307;28;20043;-64
2023/06/22 05:51:36;;;;;;;9.07;7.70;;;;;;;24.64;63.30;100502.59;4113913;28;20042;-64
2023/06/22 05:53:40;;;;;;;13.20;7.80;;;;;;;24.73;62.54;100504.84;4113736;28;20531;-64
2023/06/22 05:55:43;;;;;;;10.45;7.38;;;;;;;24.74;63.16;100510.09;4114046;28;20054;-64
2023/06/22 05:57:46;;;;;;;13.07;7.72;;;;;;;24.86;61.99;100510.50;4115484;28;20057;-64
2023/06/22 05:59:49;;;;;;;11.13;7.43;;;;;;;24.90;61.43;100504.09;4117215;28;20073;-64
2023/06/22 06:01:52;;;;;;;9.75;8.02;;;;;;;24.89;61.05;100505.03;4098873;28;20217;-64
2023/06/22 06:03:55;;;;;;;10.18;6.93;;;;;;;24.89;61.55;100502.38;4114700;28;20044;-64
2023/06/22 06:05:59;;;;;;;9.57;7.30;;;;;;;24.88;61.76;100500.63;4111980;28;20034;-64
2023/06/22 06:08:04;;;;;;;8.30;6.88;;;;;;;24.99;60.34;100503.69;4084739;29;20051;-64
2023/06/22 06:10:09;;;;;;;10.82;7.55;;;;;;;24.99;60.49;100498.34;4111978;28;20035;-64
2023/06/22 06:12:13;;;;;;;12.05;7.32;;;;;;;25.06;59.38;100515.78;4113280;28;20034;-64
2023/06/22 06:14:17;;;;;;;13.38;9.02;;;;;;;25.07;59.49;100511.31;4117143;28;20035;-64
2023/06/22 06:16:19;;;;;;;8.95;6.22;;;;;;;25.00;59.47;100518.72;4111432;28;20045;-63
2023/06/22 06:18:22;;;;;;;8.15;5.75;;;;;;;25.04;58.78;100517.66;4112937;28;20046;-64
2023/06/22 06:20:27;;;;;;;8.80;7.18;;;;;;;25.17;58.70;100504.63;4115414;28;20038;-64
2023/06/22 06:22:31;;;;;;;9.55;7.82;;;;;;;25.30;58.17;100486.31;4116472;28;20122;-64
2023/06/22 06:24:34;;;;;;;14.35;7.38;;;;;;;25.27;58.46;100475.81;4114472;28;20042;-64
2023/06/22 06:26:38;;;;;;;16.90;7.60;;;;;;;25.30;58.74;100483.63;4115579;28;20050;-64
2023/06/22 06:28:43;;;;;;;12.05;7.05;;;;;;;25.31;58.28;100487.22;4115261;28;20034;-64
2023/06/22 06:30:47;;;;;;;9.85;7.13;;;;;;;25.30;58.73;100486.31;4113568;28;20047;-64
2023/06/22 06:32:51;;;;;;;8.88;6.88;;;;;;;25.47;57.92;100488.22;4114874;28;20043;-64
2023/06/22 06:34:53;;;;;;;11.05;6.95;;;;;;;25.51;58.10;100486.25;4117026;28;20040;-64
2023/06/22 06:36:56;;;;;;;11.52;6.82;;;;;;;25.55;57.54;100480.72;4116573;28;20074;-64
2023/06/22 06:38:59;;;;;;;10.70;8.27;;;;;;;25.67;57.42;100489.03;4114091;28;20039;-64
2023/06/22 06:41:02;;;;;;;10.50;6.82;;;;;;;25.68;57.46;100482.78;4116604;28;20035;-64
2023/06/22 06:43:06;;;;;;;9.50;7.38;;;;;;;25.69;57.61;100487.19;4113048;28;20038;-64
2023/06/22 06:45:10;;;;;;;12.18;7.68;;;;;;;25.74;57.42;100490.47;4113363;28;20046;-64
2023/06/22 06:47:14;;;;;;;9.50;7.20;;;;;;;25.81;56.44;100486.56;4081811;29;20075;-64
2023/06/22 06:49:17;;;;;;;8.82;5.93;;;;;;;25.81;56.31;100491.03;4118577;28;20109;-65
2023/06/22 06:51:20;;;;;;;11.13;7.18;;;;;;;25.89;57.15;100491.50;4114373;28;20046;-64
2023/06/22 06:53:22;;;;;;;8.35;5.97;;;;;;;25.94;56.54;100486.84;4113103;28;20428;-64
2023/06/22 06:55:26;;;;;;;8.50;7.07;;;;;;;26.06;57.34;100478.25;4114878;28;20034;-64
2023/06/22 06:57:28;;;;;;;10.15;6.82;;;;;;;26.12;57.34;100477.97;4096017;28;20035;-64
2023/06/22 07:00:11;;;;;;;10.75;7.30;;;;;;;26.22;56.39;100477.47;4113986;28;20049;-65
2023/06/22 07:02:15;;;;;;;9.55;6.15;;;;;;;26.26;56.75;100473.72;4118039;28;20393;-64
2023/06/22 07:04:18;;;;;;;10.60;6.43;;;;;;;26.29;56.90;100476.22;4113889;28;20629;-64
2023/06/22 07:06:20;;;;;;;9.15;6.72;;;;;;;26.36;55.65;100468.78;4080537;29;20104;-64
2023/06/22 07:08:23;;;;;;;13.10;6.70;;;;;;;26.27;56.35;100467.47;4097287;28;20039;-64
2023/06/22 07:10:26;;;;;;;8.90;5.93;;;;;;;26.29;56.80;100457.56;4097476;28;20081;-64
2023/06/22 07:12:30;;;;;;;8.17;6.37;;;;;;;26.34;56.03;100450.19;4116571;28;20031;-64
2023/06/22 07:14:33;;;;;;;7.60;5.82;;;;;;;26.40;55.51;100452.56;4113856;28;20049;-64
2023/06/22 07:16:37;;;;;;;8.00;5.70;;;;;;;26.47;57.08;100448.63;4113885;28;20050;-64
2023/06/22 07:18:40;;;;;;;9.10;5.95;;;;;;;26.63;54.84;100447.81;4117767;28;20048;-64
2023/06/22 07:20:46;;;;;;;9.05;5.38;;;;;;;26.69;54.94;100436.84;4096798;28;20047;-64
2023/06/22 07:22:49;;;;;;;12.00;5.00;;;;;;;26.66;55.14;100442.31;4095552;28;20047;-64
2023/06/22 07:24:52;;;;;;;9.70;6.03;;;;;;;26.65;55.83;100444.13;4098084;28;20114;-65
2023/06/22 07:26:54;;;;;;;9.38;6.30;;;;;;;26.76;55.05;100453.38;4113326;28;20039;-64
2023/06/22 07:28:57;;;;;;;9.93;6.93;;;;;;;26.91;53.28;100454.34;4114303;28;20149;-64
2023/06/22 07:31:00;;;;;;;11.10;6.32;;;;;;;26.83;53.73;100455.63;4117316;28;20582;-64
2023/06/22 07:33:08;;;;;;;19.77;7.18;;;;;;;26.88;53.80;100452.72;4095716;28;20054;-64
2023/06/22 07:35:11;;;;;;;14.38;6.85;;;;;;;26.91;54.14;100462.34;4114034;28;20042;-64
2023/06/22 07:37:14;;;;;;;8.88;5.65;;;;;;;26.94;54.15;100462.19;4097220;28;20039;-64
2023/06/22 07:39:17;;;;;;;11.30;5.50;;;;;;;26.98;54.16;100458.41;4113394;28;20480;-64
2023/06/22 07:41:20;;;;;;;6.47;5.03;;;;;;;27.07;54.99;100454.38;4117403;28;20046;-64
2023/06/22 07:43:23;;;;;;;9.88;5.43;;;;;;;27.14;55.78;100459.28;4121118;28;20045;-64
2023/06/22 07:45:26;;;;;;;10.05;5.80;;;;;;;27.23;55.35;100462.41;4114626;28;20039;-64
2023/06/22 07:47:29;;;;;;;13.23;5.10;;;;;;;27.27;52.00;100456.81;4115520;28;20126;-64
2023/06/22 07:49:33;;;;;;;9.18;5.30;;;;;;;27.30;50.46;100453.09;4114754;28;20342;-64
2023/06/22 07:51:36;;;;;;;;;;;;;;;27.36;50.72;100450.13;4099910;28;20519;-64
2023/06/22 07:53:40;;;;;;;6.50;4.45;;;;;;;27.28;50.92;100449.69;4114105;28;20623;-64
2023/06/22 07:55:43;;;;;;;5.72;4.35;;;;;;;27.34;51.11;100460.88;4079642;29;20545;-64
2023/06/22 07:57:48;;;;;;;7.90;4.93;;;;;;;27.32;50.88;100464.53;4114708;28;20069;-64
2023/06/22 07:59:51;;;;;;;5.18;4.07;;;;;;;27.34;50.49;100460.03;4119155;28;20049;-64
2023/06/22 08:01:54;;;;;;;5.53;3.92;;;;;;;27.47;51.03;100450.38;4100684;28;20509;-64
2023/06/22 08:03:57;;;;;;;7.38;4.30;;;;;;;27.60;50.82;100449.66;4114205;28;20035;-64
2023/06/22 08:06:01;;;;;;;6.40;3.75;;;;;;;27.58;50.43;100446.25;4120107;28;20042;-64
2023/06/22 08:08:04;;;;;;;;;;;;;;;27.66;51.04;100436.00;4119379;28;20401;-64
2023/06/22 08:10:11;;;;;;;13.18;5.45;;;;;;;27.70;50.58;100429.53;4116961;28;19977;-64
2023/06/22 08:12:14;;;;;;;10.20;6.40;;;;;;;27.94;49.96;100421.84;4120457;28;20035;-64
2023/06/22 08:14:17;;;;;;;8.23;5.70;;;;;;;27.97;49.06;100431.50;4115801;28;20042;-65
2023/06/22 08:16:20;;;;;;;10.95;6.40;;;;;;;28.04;48.88;100430.22;4116433;28;20130;-64
2023/06/22 08:18:23;;;;;;;9.40;5.03;;;;;;;27.87;50.55;100429.38;4120421;28;20038;-64
2023/06/22 08:20:26;;;;;;;7.82;5.78;;;;;;;28.05;49.19;100426.59;4114141;28;20039;-64
2023/06/22 08:22:30;;;;;;;9.20;5.80;;;;;;;28.04;49.66;100433.75;4118933;28;20049;-64
2023/06/22 08:24:33;;;;;;;8.55;5.03;;;;;;;27.94;49.41;100427.22;4115531;28;20129;-64
2023/06/22 08:26:37;;;;;;;8.80;5.32;;;;;;;27.84;49.68;100429.53;4116613;28;20081;-64
2023/06/22 08:28:40;;;;;;;;;;;;;;;27.94;49.71;100423.69;4102897;28;20038;-65
2023/06/22 08:30:43;;;;;;;9.98;6.85;;;;;;;28.17;49.12;100423.19;4115412;28;19930;-65
2023/06/22 08:32:45;;;;;;;9.07;6.35;;;;;;;28.23;47.73;100416.63;4099839;28;20035;-64
2023/06/22 08:34:48;;;;;;;8.20;5.57;;;;;;;28.14;48.41;100410.03;4120182;28;20550;-65
2023/06/22 08:36:52;;;;;;;10.52;6.82;;;;;;;28.27;47.80;100414.59;4116104;28;20067;-64
2023/06/22 08:39:01;;;;;;;8.70;5.57;;;;;;;28.28;47.74;100422.53;4119461;28;20054;-65
2023/06/22 08:41:04;;;;;;;9.38;7.05;;;;;;;28.18;48.06;100424.94;4103224;28;20047;-65
2023/06/22 08:43:07;;;;;;;10.10;5.43;;;;;;;28.29;47.79;100431.44;4115189;28;20094;-65
2023/06/22 08:45:11;;;;;;;7.22;4.35;;;;;;;28.25;48.29;100414.69;4117290;28;20031;-65
2023/06/22 08:47:14;;;;;;;6.18;4.90;;;;;;;28.65;46.73;100416.78;4120146;28;20043;-65
2023/06/22 08:49:17;;;;;;;11.47;5.57;;;;;;;28.62;46.98;100411.63;4096826;28;20055;-65
2023/06/22 08:51:20;;;;;;;8.43;4.95;;;;;;;28.61;45.90;100413.44;4110693;28;20580;-65
2023/06/22 08:53:23;;;;;;;6.55;4.90;;;;;;;28.68;47.04;100413.91;4119160;28;20063;-65
2023/06/22 08:55:27;;;;;;;8.32;4.57;;;;;;;28.73;46.80;100414.50;4115209;28;20405;-65
2023/06/22 08:57:32;;;;;;;10.30;5.38;;;;;;;28.86;45.97;100412.75;4117511;28;20125;-65
2023/06/22 08:59:35;;;;;;;6.95;4.72;;;;;;;28.86;47.23;100414.56;4100158;28;20134;-65
2023/06/22 09:01:38;;;;;;;5.88;4.25;;;;;;;28.85;47.54;100419.06;4114306;28;20091;-65
2023/06/22 09:03:40;;;;;;;5.90;4.47;;;;;;;28.91;47.57;100423.16;4118520;28;20027;-64
2023/06/22 09:05:44;;;;;;;8.13;4.90;;;;;;;28.97;46.40;100427.25;4103817;28;20105;-64
2023/06/22 09:07:47;;;;;;;8.07;4.38;;;;;;;29.01;47.46;100431.47;4115508;28;20054;-65
2023/06/22 09:09:50;;;;;;;5.10;4.05;;;;;;;28.94;48.33;100428.31;4099933;28;20412;-64
2023/06/22 09:11:54;;;;;;;5.95;4.30;;;;;;;28.98;48.94;100429.00;4115160;28;20047;-64
2023/06/22 09:13:57;;;;;;;9.45;4.80;;;;;;;29.05;47.11;100428.50;4113330;28;20534;-64
2023/06/22 09:16:00;;;;;;;6.18;4.82;;;;;;;29.21;47.03;100422.16;4100353;28;20087;-65
2023/06/22 09:18:03;;;;;;;8.43;4.07;;;;;;;29.36;46.10;100418.50;4120037;28;21507;-65
2023/06/22 09:20:10;;;;;;;7.63;4.80;;;;;;;29.48;46.06;100403.44;4114356;28;20129;-65
2023/06/22 09:22:14;;;;;;;6.00;4.53;;;;;;;29.62;46.10;100405.22;4116670;28;20349;-65
2023/06/22 09:24:17;;;;;;;8.77;4.95;;;;;;;29.77;45.37;100398.84;4101557;28;20090;-65
2023/06/22 09:26:20;;;;;;;7.32;5.22;;;;;;;29.76;45.35;100385.56;4093965;28;20077;-65
2023/06/22 09:28:24;;;;;;;8.57;5.30;;;;;;;29.78;45.18;100386.28;4116209;28;20400;-65
2023/06/22 09:30:27;;;;;;;6.05;4.18;;;;;;;29.82;45.68;100386.94;4118047;28;20045;-65
2023/06/22 09:32:30;;;;;;;10.52;4.25;;;;;;;29.90;43.99;100380.13;4115490;28;20492;-65